createdAt,value
2023-05-05T00:02:28.948Z,15.80
2023-05-05T00:05:06.472Z,13.10
2023-05-05T00:07:43.261Z,13.60
2023-05-05T00:10:20.798Z,13.20
2023-05-05T00:12:57.874Z,13.30
2023-05-05T00:15:34.795Z,15.40
2023-05-05T00:18:11.617Z,13.70
2023-05-05T00:20:52.229Z,13.50
2023-05-05T00:23:29.147Z,12.90
2023-05-05T00:26:06.138Z,16.20
2023-05-05T00:28:42.800Z,15.90
2023-05-05T00:31:20.474Z,13.80
2023-05-05T00:33:57.362Z,15.20
2023-05-05T00:36:34.285Z,13.70
2023-05-05T00:39:11.228Z,15.30
2023-05-05T00:41:47.876Z,14.50
2023-05-05T00:44:51.899Z,13.70
2023-05-05T00:47:28.215Z,14.70
2023-05-05T00:50:04.135Z,15.50
2023-05-05T00:52:42.157Z,14.50
2023-05-05T00:55:20.814Z,14.80
2023-05-05T00:57:56.988Z,13.70
2023-05-05T01:00:33.296Z,15.10
2023-05-05T01:03:10.430Z,14.90
2023-05-05T01:06:07.051Z,14.30
2023-05-05T01:09:02.302Z,16.10
2023-05-05T01:11:51.862Z,15.90
2023-05-05T01:14:39.780Z,15.40
2023-05-05T01:17:23.873Z,14.60
2023-05-05T01:20:11.801Z,15.60
2023-05-05T01:22:59.054Z,14.40
2023-05-05T01:26:15.583Z,18.60
2023-05-05T01:29:23.213Z,13.00
2023-05-05T01:32:04.233Z,15.90
2023-05-05T01:34:48.432Z,13.60
2023-05-05T01:37:29.736Z,13.90
2023-05-05T01:40:14.495Z,12.10
2023-05-05T01:42:53.713Z,14.60
2023-05-05T01:45:36.135Z,14.80
2023-05-05T01:48:16.074Z,15.10
2023-05-05T01:50:54.935Z,16.80
2023-05-05T01:53:35.360Z,14.20
2023-05-05T01:56:15.556Z,15.90
2023-05-05T01:58:54.220Z,18.40
2023-05-05T02:01:34.226Z,15.60
2023-05-05T02:05:04.496Z,15.80
2023-05-05T02:07:42.035Z,17.20
2023-05-05T02:10:23.404Z,15.70
2023-05-05T02:13:02.969Z,16.30
2023-05-05T02:15:40.329Z,15.00
2023-05-05T02:18:16.713Z,16.50
2023-05-05T02:20:55.290Z,17.20
2023-05-05T02:23:31.975Z,17.60
2023-05-05T02:26:17.474Z,13.00
2023-05-05T02:29:02.311Z,14.30
2023-05-05T02:31:46.806Z,16.70
2023-05-05T02:34:29.488Z,16.70
2023-05-05T02:37:12.866Z,15.90
2023-05-05T02:39:59.794Z,16.30
2023-05-05T02:42:43.063Z,15.70
2023-05-05T02:45:23.690Z,20.00
2023-05-05T02:48:00.292Z,17.60
2023-05-05T02:50:37.917Z,18.60
2023-05-05T02:53:35.644Z,17.20
2023-05-05T02:56:27.355Z,18.20
2023-05-05T02:59:18.405Z,16.00
2023-05-05T03:02:12.470Z,16.30
2023-05-05T03:04:55.764Z,16.60
2023-05-05T03:07:39.977Z,18.00
2023-05-05T03:10:28.824Z,17.40
2023-05-05T03:13:10.375Z,18.50
2023-05-05T03:15:57.101Z,18.10
2023-05-05T03:18:37.684Z,17.20
2023-05-05T03:21:15.528Z,19.10
2023-05-05T03:23:53.002Z,17.40
2023-05-05T03:26:30.461Z,18.40
2023-05-05T03:29:07.090Z,19.20
2023-05-05T03:31:44.524Z,21.00
2023-05-05T03:34:21.144Z,16.50
2023-05-05T03:36:57.473Z,16.10
2023-05-05T03:39:33.790Z,19.00
2023-05-05T03:42:10.608Z,17.70
2023-05-05T03:44:46.658Z,18.30
2023-05-05T03:47:24.884Z,16.20
2023-05-05T03:50:01.068Z,17.80
2023-05-05T03:52:38.833Z,18.90
2023-05-05T03:55:18.975Z,17.90
2023-05-05T03:57:54.834Z,17.80
2023-05-05T04:00:31.157Z,16.30
2023-05-05T04:03:07.632Z,17.50
2023-05-05T04:05:43.330Z,17.30
2023-05-05T04:08:19.630Z,15.30
2023-05-05T04:10:57.845Z,17.70
2023-05-05T04:13:34.943Z,17.60
2023-05-05T04:16:13.125Z,16.60
2023-05-05T04:18:50.104Z,20.70
2023-05-05T04:21:26.121Z,17.10
2023-05-05T04:24:02.740Z,18.60
2023-05-05T04:26:39.135Z,17.40
2023-05-05T04:29:15.318Z,15.30
2023-05-05T04:31:51.707Z,13.90
2023-05-05T04:34:28.040Z,15.50
2023-05-05T04:37:04.018Z,16.90
2023-05-05T04:39:40.983Z,18.70
2023-05-05T04:42:17.267Z,17.80
2023-05-05T04:44:54.279Z,18.20
2023-05-05T04:47:32.381Z,18.10
2023-05-05T04:50:11.507Z,16.80
2023-05-05T04:52:47.803Z,15.60
2023-05-05T04:55:25.955Z,17.80
2023-05-05T04:58:02.754Z,16.00
2023-05-05T05:00:40.352Z,17.70
2023-05-05T05:03:17.044Z,16.50
2023-05-05T05:05:52.881Z,16.60
2023-05-05T05:08:29.682Z,14.70
2023-05-05T05:11:06.899Z,18.40
2023-05-05T05:13:42.563Z,16.90
2023-05-05T05:16:19.062Z,16.00
2023-05-05T05:18:55.721Z,15.10
2023-05-05T05:21:32.664Z,15.90
2023-05-05T05:24:09.562Z,16.70
2023-05-05T05:26:46.675Z,15.80
2023-05-05T05:29:22.477Z,15.30
2023-05-05T05:31:59.326Z,14.90
2023-05-05T05:34:35.371Z,18.10
2023-05-05T05:37:12.399Z,17.90
2023-05-05T05:39:53.475Z,14.20
2023-05-05T05:42:30.856Z,13.00
2023-05-05T05:45:09.794Z,14.70
2023-05-05T05:47:47.157Z,13.30
2023-05-05T05:50:23.855Z,12.70
2023-05-05T05:53:00.184Z,14.30
2023-05-05T05:55:37.172Z,14.20
2023-05-05T05:58:14.376Z,12.70
2023-05-05T06:00:52.180Z,10.90
2023-05-05T06:03:29.251Z,11.20
2023-05-05T06:06:06.415Z,11.20
2023-05-05T06:08:43.137Z,12.90
2023-05-05T06:11:18.919Z,12.40
2023-05-05T06:13:55.970Z,12.80
2023-05-05T06:16:32.556Z,19.50
2023-05-05T06:19:11.067Z,26.30
2023-05-05T06:21:48.574Z,41.10
2023-05-05T06:24:24.799Z,30.00
2023-05-05T06:27:02.608Z,36.60
2023-05-05T06:29:38.855Z,35.10
2023-05-05T06:32:15.666Z,29.70
2023-05-05T06:34:52.355Z,29.00
2023-05-05T06:37:29.103Z,28.30
2023-05-05T06:40:06.326Z,28.70
2023-05-05T06:42:42.633Z,24.80
2023-05-05T06:45:21.309Z,24.50
2023-05-05T06:47:58.657Z,21.50
2023-05-05T06:50:34.992Z,17.00
2023-05-05T06:53:10.805Z,16.50
2023-05-05T06:55:49.766Z,15.40
2023-05-05T06:58:26.107Z,15.70
2023-05-05T07:01:02.945Z,16.10
2023-05-05T07:03:39.155Z,19.30
2023-05-05T07:06:15.660Z,17.80
2023-05-05T07:08:52.089Z,18.70
2023-05-05T07:11:28.718Z,18.50
2023-05-05T07:14:05.552Z,21.00
2023-05-05T07:16:42.736Z,17.90
2023-05-05T07:19:19.855Z,14.90
2023-05-05T07:21:56.012Z,13.50
2023-05-05T07:24:33.037Z,12.90
2023-05-05T07:27:09.931Z,14.50
2023-05-05T07:29:46.273Z,13.60
2023-05-05T07:32:23.189Z,12.10
2023-05-05T07:34:59.997Z,13.00
2023-05-05T07:37:37.009Z,18.90
2023-05-05T07:40:19.113Z,12.50
2023-05-05T07:42:55.826Z,11.50
2023-05-05T07:45:32.288Z,13.60
2023-05-05T07:48:08.741Z,13.60
2023-05-05T07:50:45.652Z,13.50
2023-05-05T07:53:21.966Z,15.90
2023-05-05T07:55:58.579Z,11.90
2023-05-05T07:58:34.687Z,14.80
2023-05-05T08:01:11.455Z,13.30
2023-05-05T08:03:48.430Z,12.70
2023-05-05T08:06:25.222Z,13.00
2023-05-05T08:09:01.463Z,16.30
2023-05-05T08:11:37.777Z,12.00
2023-05-05T08:14:15.450Z,16.40
2023-05-05T08:16:52.419Z,16.60
2023-05-05T08:19:29.483Z,14.10
2023-05-05T08:22:07.650Z,17.90
2023-05-05T08:24:44.614Z,15.50
2023-05-05T08:27:21.190Z,15.90
2023-05-05T08:29:57.834Z,13.50
2023-05-05T08:32:34.398Z,15.50
2023-05-05T08:35:13.438Z,12.60
2023-05-05T08:37:50.129Z,16.50
2023-05-05T08:40:36.570Z,13.90
2023-05-05T08:43:13.726Z,15.60
2023-05-05T08:45:50.506Z,14.10
2023-05-05T08:48:29.611Z,14.10
2023-05-05T08:51:09.621Z,12.30
2023-05-05T08:54:08.542Z,11.50
2023-05-05T08:56:48.378Z,10.60
2023-05-05T08:59:25.895Z,12.50
2023-05-05T09:02:04.145Z,13.60
2023-05-05T09:04:42.545Z,13.40
2023-05-05T09:07:19.769Z,13.40
2023-05-05T09:09:56.668Z,12.30
2023-05-05T09:12:35.021Z,11.30
2023-05-05T09:15:16.677Z,9.60
2023-05-05T09:17:53.209Z,10.00
2023-05-05T09:20:33.342Z,10.90
2023-05-05T09:23:15.745Z,13.50
2023-05-05T09:26:05.996Z,9.70
2023-05-05T09:28:54.177Z,9.80
2023-05-05T09:31:34.818Z,7.90
2023-05-05T09:34:21.669Z,10.30
2023-05-05T09:36:58.638Z,11.40
2023-05-05T09:39:35.477Z,10.80
2023-05-05T09:42:22.418Z,9.30
2023-05-05T09:45:00.050Z,13.10
2023-05-05T09:47:42.903Z,11.60
2023-05-05T09:50:21.049Z,11.80
2023-05-05T09:53:06.077Z,10.80
2023-05-05T09:55:42.159Z,14.90
2023-05-05T09:58:30.167Z,10.30
2023-05-05T10:01:07.138Z,10.70
2023-05-05T10:03:56.789Z,10.30
2023-05-05T10:06:48.570Z,8.20
2023-05-05T10:09:24.720Z,9.90
2023-05-05T10:12:02.782Z,12.60
2023-05-05T10:14:42.617Z,10.90
2023-05-05T10:17:20.920Z,10.80
2023-05-05T10:19:59.977Z,8.50
2023-05-05T10:22:38.626Z,9.60
2023-05-05T10:25:18.851Z,8.90
2023-05-05T10:28:01.861Z,8.90
2023-05-05T10:30:44.645Z,7.40
2023-05-05T10:33:32.176Z,9.50
2023-05-05T10:36:10.798Z,7.40
2023-05-05T10:38:49.043Z,7.20
2023-05-05T10:41:26.549Z,9.10
2023-05-05T10:44:04.719Z,8.10
2023-05-05T10:46:41.871Z,8.80
2023-05-05T10:49:30.375Z,8.00
2023-05-05T10:52:20.163Z,9.60
2023-05-05T10:55:04.843Z,9.20
2023-05-05T10:57:45.931Z,11.10
2023-05-05T11:00:54.207Z,9.80
2023-05-05T11:03:31.280Z,9.20
2023-05-05T11:06:20.626Z,9.90
2023-05-05T11:08:58.796Z,9.40
2023-05-05T11:12:19.875Z,7.90
2023-05-05T11:15:42.768Z,9.30
2023-05-05T11:18:40.864Z,10.20
2023-05-05T11:21:19.124Z,9.60
2023-05-05T11:23:56.832Z,9.90
2023-05-05T11:26:55.515Z,9.10
2023-05-05T11:29:52.121Z,8.20
2023-05-05T11:32:28.531Z,10.60
2023-05-05T11:35:07.078Z,11.10
2023-05-05T11:37:45.230Z,12.00
2023-05-05T11:40:32.624Z,9.10
2023-05-05T11:43:15.130Z,10.50
2023-05-05T11:45:52.111Z,9.20
2023-05-05T11:48:34.439Z,7.10
2023-05-05T11:51:16.089Z,7.00
2023-05-05T11:53:55.983Z,7.30
2023-05-05T11:56:33.108Z,8.50
2023-05-05T11:59:16.449Z,6.90
2023-05-05T12:01:52.456Z,8.50
2023-05-05T12:04:29.544Z,7.40
2023-05-05T12:07:05.521Z,8.70
2023-05-05T12:09:44.363Z,9.30
2023-05-05T12:12:21.273Z,6.90
2023-05-05T12:14:58.802Z,7.80
2023-05-05T12:17:46.136Z,8.30
2023-05-05T12:20:30.946Z,6.50
2023-05-05T12:23:20.636Z,8.90
2023-05-05T12:25:56.901Z,9.30
2023-05-05T12:28:47.576Z,7.70
2023-05-05T12:31:23.394Z,6.80
2023-05-05T12:34:00.214Z,7.60
2023-05-05T12:36:36.981Z,8.10
2023-05-05T12:39:14.001Z,8.70
2023-05-05T12:41:50.718Z,8.20
2023-05-05T12:44:27.807Z,6.70
2023-05-05T12:47:04.446Z,7.30
2023-05-05T12:49:53.398Z,8.80
2023-05-05T12:52:41.886Z,7.00
2023-05-05T12:55:19.992Z,8.70
2023-05-05T12:58:08.939Z,9.70
2023-05-05T13:00:45.386Z,9.20
2023-05-05T13:03:28.079Z,9.20
2023-05-05T13:06:04.618Z,8.30
2023-05-05T13:08:50.813Z,7.60
2023-05-05T13:11:27.198Z,7.50
2023-05-05T13:14:03.037Z,8.70
2023-05-05T13:16:40.141Z,8.10
2023-05-05T13:19:15.907Z,8.10
2023-05-05T13:21:52.283Z,7.90
2023-05-05T13:24:46.451Z,6.80
2023-05-05T13:27:29.719Z,7.80
2023-05-05T13:30:06.430Z,6.60
2023-05-05T13:32:43.127Z,8.60
2023-05-05T13:35:20.171Z,8.90
2023-05-05T13:37:56.827Z,7.20
2023-05-05T13:40:33.684Z,8.20
2023-05-05T13:43:09.908Z,7.70
2023-05-05T13:45:45.956Z,6.90
2023-05-05T13:48:21.981Z,6.20
2023-05-05T13:50:58.246Z,7.40
2023-05-05T13:53:35.363Z,7.50
2023-05-05T13:56:12.217Z,6.30
2023-05-05T13:58:49.097Z,6.40
2023-05-05T14:01:25.191Z,6.40
2023-05-05T14:04:03.775Z,6.10
2023-05-05T14:06:41.779Z,6.10
2023-05-05T14:09:18.260Z,5.60
2023-05-05T14:11:54.668Z,4.90
2023-05-05T14:14:32.229Z,7.00
2023-05-05T14:17:08.507Z,8.40
2023-05-05T14:19:44.612Z,6.20
2023-05-05T14:22:20.856Z,6.10
2023-05-05T14:24:56.870Z,6.20
2023-05-05T14:27:33.321Z,6.40
2023-05-05T14:30:15.483Z,6.80
2023-05-05T14:32:51.780Z,6.10
2023-05-05T14:35:28.541Z,5.90
2023-05-05T14:38:05.658Z,6.10
2023-05-05T14:40:41.758Z,6.80
2023-05-05T14:43:18.944Z,5.90
2023-05-05T14:45:55.853Z,5.90
2023-05-05T14:48:32.812Z,7.00
2023-05-05T14:51:09.084Z,6.90
2023-05-05T14:53:45.629Z,6.90
2023-05-05T14:56:22.755Z,5.30
2023-05-05T14:58:59.833Z,6.00
2023-05-05T15:01:37.393Z,6.40
2023-05-05T15:04:14.066Z,7.00
2023-05-05T15:06:50.803Z,5.80
2023-05-05T15:09:27.521Z,7.70
2023-05-05T15:12:03.956Z,7.10
2023-05-05T15:14:40.040Z,7.20
2023-05-05T15:17:15.992Z,5.60
2023-05-05T15:19:54.920Z,6.10
2023-05-05T15:22:31.958Z,7.00
2023-05-05T15:25:15.046Z,6.40
2023-05-05T15:27:51.722Z,4.70
2023-05-05T15:30:26.940Z,7.70
2023-05-05T15:33:03.601Z,5.70
2023-05-05T15:35:40.462Z,7.20
2023-05-05T15:38:17.224Z,7.90
2023-05-05T15:40:53.370Z,6.30
2023-05-05T15:43:30.142Z,7.40
2023-05-05T15:46:06.977Z,5.40
2023-05-05T15:48:43.676Z,5.20
2023-05-05T15:51:21.098Z,6.40
2023-05-05T15:53:57.702Z,5.30
2023-05-05T15:56:34.848Z,6.50
2023-05-05T15:59:11.784Z,7.00
2023-05-05T16:01:49.022Z,6.10
2023-05-05T16:04:25.644Z,7.00
2023-05-05T16:07:03.462Z,6.50
2023-05-05T16:09:40.126Z,12.10
2023-05-05T16:12:16.785Z,5.70
2023-05-05T16:14:53.547Z,7.20
2023-05-05T16:17:30.347Z,8.10
2023-05-05T16:20:06.919Z,7.10
2023-05-05T16:22:44.023Z,5.40
2023-05-05T16:25:21.393Z,8.30
2023-05-05T16:27:57.774Z,6.50
2023-05-05T16:30:34.599Z,6.10
2023-05-05T16:33:11.578Z,7.20
2023-05-05T16:35:50.651Z,6.00
2023-05-05T16:38:27.815Z,5.80
2023-05-05T16:41:04.866Z,6.00
2023-05-05T16:43:41.016Z,7.10
2023-05-05T16:46:17.619Z,5.50
2023-05-05T16:48:53.909Z,5.80
2023-05-05T16:51:30.222Z,5.60
2023-05-05T16:54:06.740Z,7.50
2023-05-05T16:56:43.737Z,5.40
2023-05-05T16:59:20.468Z,5.50
2023-05-05T17:01:58.061Z,6.10
2023-05-05T17:04:34.295Z,6.70
2023-05-05T17:07:10.680Z,5.80
2023-05-05T17:09:47.116Z,5.90
2023-05-05T17:12:23.563Z,6.50
2023-05-05T17:15:00.748Z,7.10
2023-05-05T17:17:37.470Z,4.60
2023-05-05T17:20:20.245Z,5.40
2023-05-05T17:22:56.836Z,5.20
2023-05-05T17:25:33.622Z,5.20
2023-05-05T17:28:10.678Z,6.80
2023-05-05T17:30:47.079Z,5.00
2023-05-05T17:33:23.622Z,5.40
2023-05-05T17:36:00.513Z,8.20
2023-05-05T17:38:37.372Z,10.30
2023-05-05T17:41:14.039Z,8.00
2023-05-05T17:43:51.155Z,10.90
2023-05-05T17:46:27.743Z,7.60
2023-05-05T17:49:04.968Z,5.40
2023-05-05T17:51:41.596Z,6.10
2023-05-05T17:54:17.500Z,7.50
2023-05-05T17:56:54.759Z,7.10
2023-05-05T17:59:33.030Z,4.80
2023-05-05T18:02:11.396Z,7.00
2023-05-05T18:04:47.797Z,7.40
2023-05-05T18:07:24.437Z,6.90
2023-05-05T18:10:00.465Z,8.20
2023-05-05T18:12:36.551Z,8.30
2023-05-05T18:15:17.473Z,8.40
2023-05-05T18:17:54.110Z,7.10
2023-05-05T18:20:30.959Z,6.80
2023-05-05T18:23:07.676Z,5.50
2023-05-05T18:25:44.709Z,7.50
2023-05-05T18:28:21.008Z,10.30
2023-05-05T18:30:57.930Z,10.30
2023-05-05T18:33:34.441Z,8.60
2023-05-05T18:36:15.584Z,10.00
2023-05-05T18:38:52.263Z,10.70
2023-05-05T18:41:28.481Z,9.00
2023-05-05T18:44:05.326Z,9.70
2023-05-05T18:46:43.144Z,8.30
2023-05-05T18:49:21.321Z,11.80
2023-05-05T18:51:58.814Z,7.80
2023-05-05T18:54:37.523Z,9.00
2023-05-05T18:57:14.362Z,7.90
2023-05-05T18:59:50.316Z,8.90
2023-05-05T19:02:25.784Z,8.20
2023-05-05T19:05:02.482Z,8.40
2023-05-05T19:07:39.330Z,10.70
2023-05-05T19:10:19.434Z,10.10
2023-05-05T19:12:55.888Z,7.60
2023-05-05T19:15:32.535Z,15.00
2023-05-05T19:18:09.402Z,9.30
2023-05-05T19:20:46.990Z,8.60
2023-05-05T19:23:23.321Z,11.90
2023-05-05T19:25:59.937Z,9.10
2023-05-05T19:28:36.480Z,10.10
2023-05-05T19:31:13.801Z,10.90
2023-05-05T19:33:50.400Z,10.70
2023-05-05T19:36:26.269Z,7.30
2023-05-05T19:39:03.053Z,7.10
2023-05-05T19:41:39.737Z,9.10
2023-05-05T19:44:16.845Z,8.70
2023-05-05T19:46:53.579Z,9.50
2023-05-05T19:49:30.132Z,10.40
2023-05-05T19:52:06.842Z,9.50
2023-05-05T19:54:43.616Z,9.10
2023-05-05T19:57:19.982Z,8.10
2023-05-05T19:59:57.043Z,8.10
2023-05-05T20:02:36.208Z,8.10
2023-05-05T20:05:17.833Z,10.60
2023-05-05T20:07:55.326Z,9.90
2023-05-05T20:10:31.877Z,11.90
2023-05-05T20:13:07.874Z,9.70
2023-05-05T20:15:44.666Z,13.30
2023-05-05T20:18:20.895Z,10.30
2023-05-05T20:20:59.254Z,8.20
2023-05-05T20:23:35.982Z,10.40
2023-05-05T20:26:12.127Z,11.10
2023-05-05T20:28:49.924Z,10.40
2023-05-05T20:31:26.323Z,9.80
2023-05-05T20:34:02.708Z,8.80
2023-05-05T20:36:39.512Z,8.40
2023-05-05T20:39:19.807Z,10.30
2023-05-05T20:41:55.809Z,8.90
2023-05-05T20:44:32.028Z,9.50
2023-05-05T20:47:09.484Z,10.30
2023-05-05T20:49:46.422Z,10.70
2023-05-05T20:52:23.062Z,10.60
2023-05-05T20:54:59.511Z,10.00
2023-05-05T20:57:36.626Z,11.30
2023-05-05T21:00:18.152Z,9.20
2023-05-05T21:02:54.695Z,11.60
2023-05-05T21:05:31.180Z,9.60
2023-05-05T21:08:07.663Z,9.60
2023-05-05T21:10:44.674Z,10.70
2023-05-05T21:13:20.987Z,10.10
2023-05-05T21:15:59.545Z,10.00
2023-05-05T21:18:36.514Z,10.80
2023-05-05T21:21:14.064Z,9.60
2023-05-05T21:23:55.362Z,11.10
2023-05-05T21:26:31.757Z,10.80
2023-05-05T21:29:08.176Z,10.60
2023-05-05T21:31:44.720Z,10.60
2023-05-05T21:34:22.093Z,8.10
2023-05-05T21:36:58.325Z,11.10
2023-05-05T21:39:35.560Z,11.00
2023-05-05T21:42:11.694Z,11.90
2023-05-05T21:44:48.775Z,10.50
2023-05-05T21:47:25.328Z,12.30
2023-05-05T21:50:02.484Z,11.90
2023-05-05T21:52:38.425Z,10.80
2023-05-05T21:55:17.238Z,11.70
2023-05-05T21:57:53.823Z,14.60
2023-05-05T22:00:31.405Z,12.10
2023-05-05T22:03:08.544Z,11.30
2023-05-05T22:05:45.475Z,11.20
2023-05-05T22:08:22.366Z,10.90
2023-05-05T22:10:59.052Z,9.80
2023-05-05T22:13:35.658Z,10.90
2023-05-05T22:16:14.156Z,10.50
2023-05-05T22:18:50.662Z,12.10
2023-05-05T22:21:28.374Z,13.70
2023-05-05T22:24:05.486Z,11.60
2023-05-05T22:26:43.453Z,12.10
2023-05-05T22:29:20.251Z,10.80
2023-05-05T22:31:56.904Z,11.10
2023-05-05T22:34:33.433Z,10.50
2023-05-05T22:37:10.460Z,10.30
2023-05-05T22:39:46.891Z,14.00
2023-05-05T22:42:23.594Z,12.90
2023-05-05T22:45:00.380Z,10.30
2023-05-05T22:47:36.490Z,13.50
2023-05-05T22:50:15.806Z,12.40
2023-05-05T22:52:51.638Z,13.30
2023-05-05T22:55:29.105Z,12.60
2023-05-05T22:58:05.927Z,10.70
2023-05-05T23:00:42.677Z,10.90
2023-05-05T23:03:19.409Z,10.20
2023-05-05T23:05:55.546Z,11.10
2023-05-05T23:08:36.009Z,13.70
2023-05-05T23:11:13.548Z,10.70
2023-05-05T23:13:49.873Z,10.50
2023-05-05T23:16:26.464Z,11.70
2023-05-05T23:19:02.396Z,11.10
2023-05-05T23:21:49.703Z,11.50
2023-05-05T23:24:30.003Z,11.70
2023-05-05T23:27:08.990Z,12.30
2023-05-05T23:29:45.797Z,13.10
2023-05-05T23:32:22.037Z,11.20
2023-05-05T23:34:58.547Z,12.10
2023-05-05T23:37:35.028Z,10.20
2023-05-05T23:40:16.632Z,12.50
2023-05-05T23:42:53.732Z,10.50
2023-05-05T23:45:29.915Z,12.40
2023-05-05T23:48:06.475Z,11.30
2023-05-05T23:50:43.066Z,12.00
2023-05-05T23:53:19.752Z,11.10
2023-05-05T23:55:56.184Z,12.40
2023-05-05T23:58:32.976Z,11.30
